Time;durP1;ratioP1;P1;durP2;ratioP2;P2;SDS_P1;SDS_P2;PMS_P1;PMS_P2;Temp;Humidity;BMP_temperature;BMP_pressure;BME280_temperature;BME280_humidity;BME280_pressure;Samples;Min_cycle;Max_cycle;Signal;HPM_P1;HPM_P2
2021/04/24 00:00:10;;;;;;;0.22;0.22;;;14.80;58.60;;;;;;4164445;28;20560;-45
2021/04/24 00:02:32;;;;;;;0.00;0.00;;;14.80;58.60;;;;;;4162317;28;20108;-47
2021/04/24 00:04:53;;;;;;;2.53;0.65;;;14.80;58.60;;;;;;4162916;28;20053;-45
2021/04/24 00:07:14;;;;;;;0.00;0.00;;;14.80;58.60;;;;;;4162149;28;20542;-45
2021/04/24 00:09:35;;;;;;;0.10;0.08;;;14.70;58.60;;;;;;4178380;28;20558;-47
2021/04/24 00:11:57;;;;;;;0.05;0.05;;;14.70;58.60;;;;;;4176261;28;20102;-46
2021/04/24 00:14:18;;;;;;;0.15;0.15;;;14.70;58.70;;;;;;4173629;28;20057;-44
2021/04/24 00:16:39;;;;;;;0.15;0.15;;;14.70;58.70;;;;;;4168424;28;20049;-46
2021/04/24 00:19:00;;;;;;;0.20;0.20;;;14.70;58.70;;;;;;4165703;28;20829;-44
2021/04/24 00:21:21;;;;;;;;;;;14.70;58.70;;;;;;4165078;28;20112;-44
2021/04/24 00:23:43;;;;;;;0.10;0.10;;;14.70;58.80;;;;;;4160016;28;19947;-44
2021/04/24 00:26:04;;;;;;;;;;;14.70;58.70;;;;;;4166332;28;20095;-45
2021/04/24 00:28:26;;;;;;;0.00;0.00;;;14.70;58.80;;;;;;4165007;28;20322;-48
2021/04/24 00:30:47;;;;;;;0.00;0.00;;;14.60;58.80;;;;;;4165926;28;20053;-46
2021/04/24 00:33:08;;;;;;;0.00;0.00;;;14.70;58.90;;;;;;4166970;28;20049;-45
2021/04/24 00:35:29;;;;;;;0.00;0.00;;;14.70;59.00;;;;;;4164869;28;20060;-46
2021/04/24 00:37:50;;;;;;;0.00;0.00;;;14.70;59.00;;;;;;4163085;28;20136;-49
2021/04/24 00:40:12;;;;;;;0.00;0.00;;;14.60;59.10;;;;;;4159444;28;20103;-45
2021/04/24 00:42:33;;;;;;;0.88;0.30;;;14.60;59.20;;;;;;4159778;28;20049;-45
2021/04/24 00:44:55;;;;;;;;;;;14.60;59.00;;;;;;4159306;28;20183;-45
2021/04/24 00:47:17;;;;;;;;;;;14.60;59.10;;;;;;4160070;28;19924;-44
2021/04/24 00:49:38;;;;;;;0.00;0.00;;;14.60;59.10;;;;;;4159658;28;19921;-45
2021/04/24 00:51:59;;;;;;;0.00;0.00;;;14.60;59.10;;;;;;4159416;28;20581;-47
2021/04/24 00:54:20;;;;;;;0.20;0.20;;;14.60;59.20;;;;;;4159402;28;20081;-44
2021/04/24 00:56:45;;;;;;;0.00;0.00;;;14.50;59.20;;;;;;4159153;28;20049;-49
2021/04/24 00:59:06;;;;;;;0.00;0.00;;;14.50;59.30;;;;;;4159054;28;20096;-45
2021/04/24 01:01:28;;;;;;;0.00;0.00;;;14.50;59.30;;;;;;4159541;28;20060;-48
2021/04/24 01:03:49;;;;;;;0.00;0.00;;;14.50;59.30;;;;;;4159585;28;20049;-47
2021/04/24 01:06:10;;;;;;;4.55;1.55;;;14.40;59.30;;;;;;4158907;28;20053;-44
2021/04/24 01:08:31;;;;;;;0.00;0.00;;;14.50;59.40;;;;;;4159368;28;20778;-45
2021/04/24 01:10:52;;;;;;;0.50;0.30;;;14.50;59.50;;;;;;4159100;28;20567;-45
2021/04/24 01:13:14;;;;;;;0.20;0.20;;;14.40;59.50;;;;;;4159385;28;20056;-46
2021/04/24 01:15:36;;;;;;;0.00;0.00;;;14.40;59.50;;;;;;4158826;28;20046;-45
2021/04/24 01:17:58;;;;;;;0.10;0.10;;;14.40;59.60;;;;;;4159161;28;20140;-45
2021/04/24 01:20:21;;;;;;;0.08;0.08;;;14.40;59.50;;;;;;4159070;28;20524;-45
2021/04/24 01:22:43;;;;;;;0.10;0.10;;;14.40;59.60;;;;;;4158820;28;20042;-44
2021/04/24 01:25:06;;;;;;;0.35;0.35;;;14.40;59.60;;;;;;4158947;28;20507;-46
2021/04/24 01:27:27;;;;;;;0.00;0.00;;;14.40;59.60;;;;;;4158468;28;20049;-47
2021/04/24 01:29:48;;;;;;;0.00;0.00;;;14.40;59.60;;;;;;4158489;28;20060;-45
2021/04/24 01:32:09;;;;;;;0.52;0.40;;;14.40;59.70;;;;;;4158976;28;20060;-48
2021/04/24 01:34:31;;;;;;;1.65;0.88;;;14.30;59.60;;;;;;4158442;28;20045;-45
2021/04/24 01:36:55;;;;;;;0.10;0.10;;;14.30;59.70;;;;;;4158527;28;20071;-46
2021/04/24 01:39:17;;;;;;;0.10;0.10;;;14.30;59.70;;;;;;4158808;28;20056;-45
2021/04/24 01:41:38;;;;;;;0.00;0.00;;;14.30;59.70;;;;;;4158884;28;20073;-48
2021/04/24 01:43:59;;;;;;;0.00;0.00;;;14.30;59.80;;;;;;4158594;28;20092;-46
2021/04/24 01:46:21;;;;;;;0.00;0.00;;;14.30;59.80;;;;;;4158388;28;20136;-49
2021/04/24 01:48:42;;;;;;;;;;;14.20;59.70;;;;;;4159289;28;20049;-45
2021/04/24 01:51:03;;;;;;;0.00;0.00;;;14.30;59.90;;;;;;4158679;28;19932;-47
2021/04/24 01:53:24;;;;;;;0.00;0.00;;;14.30;59.90;;;;;;4158276;28;20037;-46
2021/04/24 01:55:47;;;;;;;;;;;14.20;59.90;;;;;;4158778;28;20754;-45
2021/04/24 01:58:10;;;;;;;3.53;0.98;;;14.20;60.00;;;;;;4158385;28;20012;-45
2021/04/24 02:00:33;;;;;;;0.00;0.00;;;14.20;60.00;;;;;;4158461;28;20061;-46
2021/04/24 02:02:55;;;;;;;0.00;0.00;;;14.20;60.00;;;;;;4158227;28;20107;-45
2021/04/24 02:05:17;;;;;;;0.15;0.15;;;14.20;60.00;;;;;;4158262;28;20080;-45
2021/04/24 02:07:38;;;;;;;0.20;0.15;;;14.20;60.00;;;;;;4158417;28;20526;-45
2021/04/24 02:09:59;;;;;;;0.10;0.10;;;14.20;60.00;;;;;;4158303;28;20144;-44
2021/04/24 02:12:22;;;;;;;0.00;0.00;;;14.20;60.20;;;;;;4158359;28;20123;-46
2021/04/24 02:14:45;;;;;;;0.00;0.00;;;14.20;60.60;;;;;;4142110;28;20157;-48
2021/04/24 02:17:07;;;;;;;0.47;0.47;;;14.20;60.30;;;;;;4140850;28;20574;-47
2021/04/24 02:19:29;;;;;;;0.00;0.00;;;14.20;60.30;;;;;;4158538;28;20037;-46
2021/04/24 02:21:50;;;;;;;0.00;0.00;;;14.10;60.20;;;;;;4157919;28;20045;-46
2021/04/24 02:24:11;;;;;;;0.03;0.03;;;14.10;60.30;;;;;;4158063;28;20141;-44
2021/04/24 02:26:32;;;;;;;0.08;0.08;;;14.10;60.20;;;;;;4157984;28;20037;-47
2021/04/24 02:28:54;;;;;;;0.00;0.00;;;14.10;60.20;;;;;;4157788;28;20127;-44
2021/04/24 02:31:14;;;;;;;0.00;0.00;;;14.10;60.20;;;;;;4157888;28;20514;-46
2021/04/24 02:33:35;;;;;;;0.05;0.05;;;14.10;60.30;;;;;;4157502;28;20050;-49
2021/04/24 02:35:58;;;;;;;0.22;0.22;;;14.10;60.30;;;;;;4158269;28;20494;-46
2021/04/24 02:38:21;;;;;;;0.00;0.00;;;14.10;60.40;;;;;;4158186;28;20052;-46
2021/04/24 02:40:43;;;;;;;0.43;0.15;;;14.10;60.40;;;;;;4141419;28;20050;-47
2021/04/24 02:43:06;;;;;;;0.00;0.00;;;14.10;60.30;;;;;;4141695;28;20050;-46
2021/04/24 02:45:27;;;;;;;;;;;14.10;60.30;;;;;;4157965;28;20054;-47
2021/04/24 02:47:48;;;;;;;0.52;0.52;;;14.10;60.50;;;;;;4157821;28;19928;-44
2021/04/24 02:50:15;;;;;;;0.00;0.00;;;14.10;60.50;;;;;;4157825;28;20049;-51
2021/04/24 02:52:36;;;;;;;0.00;0.00;;;14.00;60.40;;;;;;4157831;28;20049;-48
2021/04/24 02:54:57;;;;;;;0.00;0.00;;;14.10;60.50;;;;;;4157593;28;20045;-44
2021/04/24 02:57:18;;;;;;;0.00;0.00;;;14.10;60.50;;;;;;4157889;28;20045;-44
2021/04/24 02:59:38;;;;;;;0.25;0.25;;;14.00;61.30;;;;;;4157595;28;20506;-44
2021/04/24 03:02:01;;;;;;;1.20;0.65;;;14.00;60.50;;;;;;4157916;28;20053;-48
2021/04/24 03:04:22;;;;;;;0.00;0.00;;;14.00;60.50;;;;;;4158056;28;20053;-44
2021/04/24 03:06:44;;;;;;;0.00;0.00;;;14.00;60.50;;;;;;4157519;28;20495;-45
2021/04/24 03:09:06;;;;;;;0.40;0.40;;;14.00;60.60;;;;;;4157781;28;20053;-46
2021/04/24 03:11:28;;;;;;;0.00;0.00;;;14.00;60.60;;;;;;4157328;28;20128;-48
2021/04/24 03:13:49;;;;;;;0.00;0.00;;;14.00;60.60;;;;;;4157746;28;20530;-46
2021/04/24 03:16:11;;;;;;;0.00;0.00;;;14.00;60.60;;;;;;4157903;28;20061;-45
2021/04/24 03:18:33;;;;;;;0.00;0.00;;;14.00;60.70;;;;;;4157635;28;20144;-47
2021/04/24 03:20:54;;;;;;;0.00;0.00;;;13.90;60.70;;;;;;4157415;28;20103;-46
2021/04/24 03:23:15;;;;;;;0.00;0.00;;;13.90;60.80;;;;;;4142075;28;20532;-44
2021/04/24 03:25:37;;;;;;;0.00;0.00;;;13.90;60.70;;;;;;4157234;28;20453;-45
2021/04/24 03:27:57;;;;;;;;;;;14.00;60.80;;;;;;4158037;28;20163;-44
2021/04/24 03:30:19;;;;;;;0.00;0.00;;;13.90;60.80;;;;;;4157022;28;19929;-45
2021/04/24 03:32:39;;;;;;;;;;;13.90;60.70;;;;;;4157860;28;20554;-45
2021/04/24 03:35:02;;;;;;;0.45;0.45;;;13.90;60.90;;;;;;4156407;28;19991;-44
2021/04/24 03:37:23;;;;;;;0.40;0.40;;;13.90;60.80;;;;;;4141694;28;20052;-47
2021/04/24 03:39:44;;;;;;;0.00;0.00;;;13.90;60.90;;;;;;4141280;28;20497;-45
2021/04/24 03:42:05;;;;;;;0.10;0.10;;;13.90;61.00;;;;;;4141305;28;20101;-45
2021/04/24 03:44:26;;;;;;;0.15;0.15;;;13.90;61.00;;;;;;4157169;28;20049;-48
2021/04/24 03:46:47;;;;;;;0.00;0.00;;;13.90;61.00;;;;;;4142349;28;20592;-45
2021/04/24 03:49:07;;;;;;;1.02;1.02;;;13.90;61.00;;;;;;4156569;28;20045;-45
2021/04/24 03:51:29;;;;;;;0.00;0.00;;;13.90;61.00;;;;;;4158542;28;20053;-48
2021/04/24 03:53:50;;;;;;;0.00;0.00;;;13.90;61.20;;;;;;4160401;28;20054;-44
2021/04/24 03:56:12;;;;;;;0.00;0.00;;;13.90;61.10;;;;;;4160541;28;20053;-45
2021/04/24 03:58:32;;;;;;;0.00;0.00;;;13.80;62.00;;;;;;4160384;28;20056;-45
2021/04/24 04:00:54;;;;;;;0.00;0.00;;;13.80;61.10;;;;;;4160386;28;20057;-47
2021/04/24 04:03:14;;;;;;;0.00;0.00;;;13.80;61.20;;;;;;4160161;28;20045;-49
2021/04/24 04:05:36;;;;;;;0.00;0.00;;;13.80;61.20;;;;;;4160105;28;20049;-45
2021/04/24 04:08:01;;;;;;;0.00;0.00;;;13.80;61.20;;;;;;4160577;28;20045;-45
2021/04/24 04:10:23;;;;;;;0.00;0.00;;;13.80;61.20;;;;;;4143799;28;20492;-44
2021/04/24 04:12:47;;;;;;;0.68;0.35;;;13.80;61.40;;;;;;4144074;28;20093;-45
2021/04/24 04:15:10;;;;;;;2.17;1.45;;;13.80;61.40;;;;;;4159137;28;20135;-49
2021/04/24 04:17:30;;;;;;;0.00;0.00;;;13.80;61.40;;;;;;4160376;28;20140;-44
2021/04/24 04:19:51;;;;;;;0.00;0.00;;;13.80;61.50;;;;;;4144894;28;20123;-44
2021/04/24 04:22:12;;;;;;;0.47;0.47;;;13.70;61.50;;;;;;4160272;28;20508;-45
2021/04/24 04:24:33;;;;;;;0.10;0.10;;;13.80;61.50;;;;;;4159858;28;20041;-44
2021/04/24 04:26:55;;;;;;;0.00;0.00;;;13.70;61.50;;;;;;4144947;28;20050;-45
2021/04/24 04:29:16;;;;;;;0.20;0.20;;;13.70;61.60;;;;;;4160041;28;20396;-47
2021/04/24 04:31:36;;;;;;;0.05;0.05;;;13.70;61.60;;;;;;4159421;28;20049;-44
2021/04/24 04:33:57;;;;;;;0.00;0.00;;;13.70;61.60;;;;;;4159667;28;20049;-44
2021/04/24 04:36:18;;;;;;;0.60;0.60;;;13.70;61.60;;;;;;4159872;28;20693;-45
2021/04/24 04:38:39;;;;;;;0.00;0.00;;;13.70;61.60;;;;;;4145028;28;20567;-45
2021/04/24 04:41:00;;;;;;;0.00;0.00;;;13.70;61.70;;;;;;4159650;28;20123;-45
2021/04/24 04:43:21;;;;;;;0.85;0.85;;;13.70;61.60;;;;;;4159308;28;20041;-45
2021/04/24 04:45:42;;;;;;;;;;;13.70;61.60;;;;;;4160208;28;20053;-47
2021/04/24 04:48:05;;;;;;;0.00;0.00;;;13.70;61.70;;;;;;4159548;28;20396;-45
2021/04/24 04:50:28;;;;;;;1.17;0.38;;;13.70;61.70;;;;;;4159675;28;20061;-44
2021/04/24 04:52:50;;;;;;;0.63;0.55;;;13.70;61.70;;;;;;4159419;28;20420;-45
2021/04/24 04:55:11;;;;;;;0.00;0.00;;;13.70;61.70;;;;;;4159639;28;20058;-46
2021/04/24 04:57:34;;;;;;;0.00;0.00;;;13.70;61.70;;;;;;4158988;28;20471;-44
2021/04/24 04:59:55;;;;;;;0.13;0.13;;;13.70;61.70;;;;;;4158981;28;20148;-44
2021/04/24 05:02:17;;;;;;;0.00;0.00;;;13.70;61.70;;;;;;4159385;28;20133;-45
2021/04/24 05:04:38;;;;;;;0.05;0.05;;;13.70;61.70;;;;;;4157052;28;20072;-43
2021/04/24 05:06:58;;;;;;;0.00;0.00;;;13.70;61.70;;;;;;4159505;28;20052;-47
2021/04/24 05:09:22;;;;;;;0.00;0.00;;;13.70;61.70;;;;;;4159348;28;20061;-47
2021/04/24 05:11:42;;;;;;;0.00;0.00;;;13.70;61.70;;;;;;4143133;28;20046;-44
2021/04/24 05:14:04;;;;;;;0.00;0.00;;;13.70;61.70;;;;;;4151088;28;20053;-48
2021/04/24 05:16:25;;;;;;;;;;;13.70;61.70;;;;;;4159685;28;20049;-45
2021/04/24 05:18:45;;;;;;;0.00;0.00;;;13.70;61.90;;;;;;4159144;28;20016;-42
2021/04/24 05:21:07;;;;;;;0.00;0.00;;;13.70;62.10;;;;;;4158973;28;20435;-47
2021/04/24 05:23:27;;;;;;;0.00;0.00;;;13.80;63.10;;;;;;4156348;28;20053;-44
2021/04/24 05:25:49;;;;;;;0.10;0.10;;;13.90;62.60;;;;;;4158863;28;20053;-45
2021/04/24 05:28:09;;;;;;;0.05;0.05;;;13.90;62.50;;;;;;4158395;28;20049;-43
2021/04/24 05:30:31;;;;;;;0.70;0.70;;;13.90;62.40;;;;;;4158776;28;20049;-45
2021/04/24 05:32:52;;;;;;;0.00;0.00;;;13.90;62.40;;;;;;4149289;28;20500;-45
2021/04/24 05:35:14;;;;;;;;;;;13.90;62.10;;;;;;4159516;28;20507;-43
2021/04/24 05:37:35;;;;;;;1.10;0.55;;;13.90;62.90;;;;;;4158866;28;20327;-45
2021/04/24 05:39:57;;;;;;;0.10;0.10;;;13.90;61.90;;;;;;4158585;28;20056;-44
2021/04/24 05:42:22;;;;;;;0.80;0.80;;;13.90;61.80;;;;;;4158609;28;20056;-45
2021/04/24 05:44:43;;;;;;;0.00;0.00;;;13.90;61.80;;;;;;4158486;28;20492;-45
2021/04/24 05:47:05;;;;;;;0.00;0.00;;;13.90;61.60;;;;;;4158573;28;20427;-45
2021/04/24 05:49:25;;;;;;;0.75;0.75;;;13.90;61.60;;;;;;4155005;28;20427;-48
2021/04/24 05:51:47;;;;;;;0.00;0.00;;;13.90;61.60;;;;;;4143925;28;20508;-46
2021/04/24 05:54:08;;;;;;;0.00;0.00;;;13.80;61.60;;;;;;4158771;28;20506;-44
2021/04/24 05:56:28;;;;;;;0.00;0.00;;;13.80;61.60;;;;;;4158722;28;20045;-45
2021/04/24 05:58:50;;;;;;;0.32;0.32;;;13.80;61.70;;;;;;4158357;28;20454;-45
2021/04/24 06:01:11;;;;;;;0.00;0.00;;;13.80;61.60;;;;;;4158648;28;20492;-45
2021/04/24 06:03:33;;;;;;;0.00;0.00;;;13.80;61.60;;;;;;4158274;28;20052;-45
2021/04/24 06:05:54;;;;;;;0.00;0.00;;;13.80;61.60;;;;;;4158277;28;20049;-46
2021/04/24 06:08:16;;;;;;;0.00;0.00;;;13.80;61.70;;;;;;4158552;28;20782;-47
2021/04/24 06:10:37;;;;;;;0.00;0.00;;;13.80;61.70;;;;;;4158521;28;20051;-45
2021/04/24 06:12:58;;;;;;;0.00;0.00;;;13.80;61.80;;;;;;4157511;28;20627;-44
2021/04/24 06:15:20;;;;;;;0.60;0.60;;;13.80;61.80;;;;;;4158323;28;20041;-47
2021/04/24 06:17:42;;;;;;;0.77;0.35;;;13.80;61.80;;;;;;4158420;28;20057;-46
2021/04/24 06:20:05;;;;;;;;;;;13.80;61.70;;;;;;4158734;28;20049;-47
2021/04/24 06:22:27;;;;;;;0.00;0.00;;;13.80;61.70;;;;;;4158002;28;19927;-54
2021/04/24 06:24:47;;;;;;;0.30;0.30;;;13.80;61.70;;;;;;4157220;28;20400;-52
2021/04/24 06:27:08;;;;;;;0.00;0.00;;;13.70;61.70;;;;;;4158037;28;20502;-48
2021/04/24 06:29:29;;;;;;;0.10;0.10;;;13.70;62.70;;;;;;4157445;28;20081;-44
2021/04/24 06:31:50;;;;;;;0.00;0.00;;;13.70;61.70;;;;;;4157963;28;20077;-47
2021/04/24 06:34:11;;;;;;;0.00;0.00;;;13.60;61.70;;;;;;4143082;28;20821;-45
2021/04/24 06:36:33;;;;;;;0.00;0.00;;;13.60;61.70;;;;;;4158198;28;20051;-45
2021/04/24 06:38:54;;;;;;;0.00;0.00;;;13.60;61.80;;;;;;4147665;28;20729;-47
2021/04/24 06:41:15;;;;;;;;;;;13.60;61.80;;;;;;4158076;28;20053;-45
2021/04/24 06:43:36;;;;;;;0.00;0.00;;;13.60;61.90;;;;;;4157139;28;19932;-44
2021/04/24 06:45:57;;;;;;;0.00;0.00;;;13.60;61.80;;;;;;4157336;28;20056;-44
2021/04/24 06:48:19;;;;;;;1.25;0.57;;;13.60;61.60;;;;;;4151083;28;20053;-45
2021/04/24 06:50:40;;;;;;;0.57;0.43;;;13.70;61.50;;;;;;4157318;28;20053;-45
2021/04/24 06:53:02;;;;;;;0.30;0.30;;;13.70;61.50;;;;;;4157988;28;20060;-44
2021/04/24 06:55:23;;;;;;;;;;;13.70;61.60;;;;;;4157129;28;20562;-45
2021/04/24 06:57:45;;;;;;;0.00;0.00;;;13.70;61.90;;;;;;4142331;28;19922;-45
2021/04/24 07:00:08;;;;;;;0.00;0.00;;;13.70;61.60;;;;;;4157643;28;20045;-45
2021/04/24 07:02:28;;;;;;;0.00;0.00;;;13.80;61.60;;;;;;4157209;28;20057;-47
2021/04/24 07:04:50;;;;;;;0.10;0.10;;;13.80;61.30;;;;;;4156942;28;20399;-44
2021/04/24 07:07:10;;;;;;;0.00;0.00;;;13.90;61.30;;;;;;4125527;28;20058;-45
2021/04/24 07:09:32;;;;;;;;;;;13.90;61.20;;;;;;4125960;28;20046;-44
2021/04/24 07:11:54;;;;;;;0.32;0.22;;;14.00;61.00;;;;;;4125161;28;19922;-45
2021/04/24 07:14:14;;;;;;;0.00;0.00;;;14.00;61.60;;;;;;4125664;28;20054;-47
2021/04/24 07:16:35;;;;;;;0.00;0.00;;;14.10;63.40;;;;;;4125015;28;20054;-45
2021/04/24 07:18:57;;;;;;;0.32;0.32;;;14.10;63.70;;;;;;4125139;28;20042;-46
2021/04/24 07:21:18;;;;;;;1.65;1.55;;;14.20;64.50;;;;;;4109773;28;20505;-44
2021/04/24 07:23:41;;;;;;;0.00;0.00;;;14.10;66.20;;;;;;4109393;28;20061;-43
2021/04/24 07:26:04;;;;;;;0.03;0.03;;;14.10;64.90;;;;;;4115513;28;20046;-45
2021/04/24 07:28:25;;;;;;;2.38;1.10;;;14.10;64.50;;;;;;4128175;28;20460;-47
2021/04/24 07:30:46;;;;;;;;;;;14.10;64.10;;;;;;4128738;28;20050;-45
2021/04/24 07:33:07;;;;;;;0.00;0.00;;;14.00;63.80;;;;;;4128456;28;19925;-49
2021/04/24 07:35:28;;;;;;;0.82;0.70;;;14.00;63.50;;;;;;4128671;28;20152;-46
2021/04/24 07:37:49;;;;;;;0.25;0.25;;;14.10;63.10;;;;;;4128747;28;20501;-44
2021/04/24 07:40:11;;;;;;;0.00;0.00;;;14.00;62.80;;;;;;4119739;28;20139;-46
2021/04/24 07:42:33;;;;;;;1.38;0.38;;;14.10;63.10;;;;;;4128605;28;20054;-45
2021/04/24 07:44:54;;;;;;;0.00;0.00;;;14.10;62.20;;;;;;4128593;28;20137;-44
2021/04/24 07:47:15;;;;;;;0.13;0.13;;;14.10;62.10;;;;;;4127124;28;20480;-44
2021/04/24 07:49:37;;;;;;;0.00;0.00;;;14.10;61.60;;;;;;4127757;28;20492;-46
2021/04/24 07:51:58;;;;;;;0.08;0.08;;;14.10;61.20;;;;;;4128454;28;20504;-45
2021/04/24 07:54:19;;;;;;;0.38;0.38;;;14.10;61.40;;;;;;4128251;28;20497;-45
2021/04/24 07:56:40;;;;;;;0.00;0.00;;;14.10;61.40;;;;;;4128393;28;20421;-44
2021/04/24 07:59:02;;;;;;;;;;;14.10;61.40;;;;;;4128024;28;20113;-45
2021/04/24 08:01:23;;;;;;;;;;;14.20;61.20;;;;;;4128561;28;19980;-44
2021/04/24 08:03:45;;;;;;;0.00;0.00;;;14.20;61.80;;;;;;4128206;28;19925;-45
2021/04/24 08:06:07;;;;;;;0.00;0.00;;;14.20;60.60;;;;;;4126960;28;20057;-45
2021/04/24 08:08:28;;;;;;;0.63;0.15;;;14.20;60.30;;;;;;4146274;28;20080;-44
2021/04/24 08:10:49;;;;;;;0.05;0.05;;;14.20;60.70;;;;;;4160289;28;20057;-46
2021/04/24 08:13:10;;;;;;;0.10;0.10;;;14.20;60.70;;;;;;4159584;28;20096;-46
2021/04/24 08:15:32;;;;;;;0.55;0.55;;;14.30;60.60;;;;;;4160239;28;20132;-44
2021/04/24 08:17:53;;;;;;;0.00;0.00;;;14.30;60.00;;;;;;4160026;28;20401;-46
2021/04/24 08:20:14;;;;;;;0.70;0.70;;;14.40;60.00;;;;;;4155862;28;20248;-45
2021/04/24 08:22:36;;;;;;;0.00;0.00;;;14.40;59.20;;;;;;4160002;28;20496;-44
2021/04/24 08:24:57;;;;;;;0.98;0.90;;;14.40;59.00;;;;;;4159889;28;20144;-44
2021/04/24 08:27:18;;;;;;;1.20;1.17;;;14.40;59.20;;;;;;4159988;28;20488;-44
2021/04/24 08:29:39;;;;;;;0.00;0.00;;;14.40;59.30;;;;;;4159627;28;20103;-44
2021/04/24 08:32:02;;;;;;;0.00;0.00;;;14.40;59.40;;;;;;4158938;28;20514;-45
2021/04/24 08:34:25;;;;;;;4.03;2.53;;;14.40;59.50;;;;;;4159911;28;20041;-44
2021/04/24 08:36:46;;;;;;;0.00;0.00;;;14.50;59.50;;;;;;4159543;28;20049;-48
2021/04/24 08:39:08;;;;;;;0.47;0.47;;;14.50;59.40;;;;;;4159319;28;20049;-44
2021/04/24 08:41:29;;;;;;;0.10;0.10;;;14.50;59.30;;;;;;4159788;28;20048;-46
2021/04/24 08:43:55;;;;;;;0.00;0.00;;;14.50;59.00;;;;;;4159779;28;20112;-47
2021/04/24 08:46:16;;;;;;;0.10;0.10;;;14.50;58.90;;;;;;4159489;28;20357;-45
2021/04/24 08:48:38;;;;;;;3.72;1.10;;;14.60;58.80;;;;;;4159504;28;20049;-44
2021/04/24 08:51:00;;;;;;;0.20;0.20;;;14.60;59.10;;;;;;4160084;28;20053;-44
2021/04/24 08:53:22;;;;;;;0.40;0.40;;;14.60;58.70;;;;;;4160024;28;20045;-45
2021/04/24 08:55:43;;;;;;;0.20;0.20;;;14.60;59.00;;;;;;4159530;28;20049;-45
2021/04/24 08:58:06;;;;;;;0.00;0.00;;;14.60;59.20;;;;;;4158204;28;20111;-44
2021/04/24 09:00:30;;;;;;;0.10;0.10;;;14.70;59.30;;;;;;4159353;28;20050;-44
2021/04/24 09:02:52;;;;;;;0.10;0.10;;;14.70;59.10;;;;;;4159342;28;20046;-44
2021/04/24 09:05:15;;;;;;;;;;;14.80;59.20;;;;;;4159632;28;20547;-45
2021/04/24 09:07:36;;;;;;;0.28;0.28;;;14.80;58.80;;;;;;4159368;28;19978;-44
2021/04/24 09:09:58;;;;;;;0.00;0.00;;;14.80;58.70;;;;;;4159380;28;20042;-48
2021/04/24 09:12:34;;;;;;;0.65;0.65;;;14.80;58.20;;;;;;4144396;28;20077;-44
2021/04/24 09:15:07;;;;;;;0.75;0.68;;;14.80;58.10;;;;;;4158594;28;20059;-46
2021/04/24 09:17:54;;;;;;;1.25;1.15;;;14.80;57.50;;;;;;4158645;28;20049;-48
2021/04/24 09:20:17;;;;;;;0.20;0.20;;;14.80;57.10;;;;;;4158611;28;20436;-45
2021/04/24 09:22:38;;;;;;;0.00;0.00;;;14.90;57.10;;;;;;4159087;28;20855;-50
2021/04/24 09:25:04;;;;;;;0.05;0.05;;;14.90;57.80;;;;;;4158354;28;20056;-44
2021/04/24 09:27:43;;;;;;;0.10;0.10;;;14.90;56.50;;;;;;4158466;28;20118;-46
2021/04/24 09:30:16;;;;;;;0.20;0.20;;;14.90;56.10;;;;;;4158821;28;20046;-45
2021/04/24 09:32:37;;;;;;;0.10;0.10;;;14.90;56.00;;;;;;4158216;28;20054;-43
2021/04/24 09:34:58;;;;;;;0.00;0.00;;;14.90;56.60;;;;;;4157732;28;20496;-46
2021/04/24 09:37:21;;;;;;;0.00;0.00;;;15.00;55.40;;;;;;4159289;28;20052;-47
2021/04/24 09:39:47;;;;;;;0.00;0.00;;;15.00;55.20;;;;;;4159063;28;20041;-45
2021/04/24 09:42:28;;;;;;;0.00;0.00;;;15.00;54.90;;;;;;4158903;28;20468;-45
2021/04/24 09:44:53;;;;;;;0.00;0.00;;;15.00;54.70;;;;;;4144280;28;20111;-44
2021/04/24 09:47:14;;;;;;;0.30;0.30;;;15.10;54.50;;;;;;4158786;28;20056;-44
2021/04/24 09:49:36;;;;;;;0.00;0.00;;;15.10;54.40;;;;;;4157516;28;20041;-45
2021/04/24 09:51:59;;;;;;;0.22;0.22;;;15.10;53.90;;;;;;4158615;28;20080;-48
2021/04/24 09:54:23;;;;;;;0.10;0.10;;;15.10;53.50;;;;;;4158326;28;20045;-44
2021/04/24 09:56:55;;;;;;;0.00;0.00;;;15.10;52.90;;;;;;4158856;28;20034;-45
2021/04/24 09:59:18;;;;;;;0.00;0.00;;;15.10;53.00;;;;;;4157888;28;20123;-45
2021/04/24 10:01:41;;;;;;;0.00;0.00;;;15.10;52.90;;;;;;4158541;28;20049;-44
2021/04/24 10:04:03;;;;;;;2.83;1.95;;;15.10;52.90;;;;;;4158015;28;20423;-44
2021/04/24 10:06:25;;;;;;;0.00;0.00;;;15.20;53.00;;;;;;4158215;28;20519;-45
2021/04/24 10:08:46;;;;;;;0.30;0.30;;;15.20;53.20;;;;;;4143467;28;20058;-44
2021/04/24 10:11:08;;;;;;;2.10;1.75;;;15.20;53.00;;;;;;4157959;28;20049;-45
2021/04/24 10:13:39;;;;;;;1.75;0.38;;;15.20;53.50;;;;;;4145422;28;20049;-44
2021/04/24 10:16:00;;;;;;;1.10;0.60;;;15.20;53.50;;;;;;4157941;28;20057;-44
2021/04/24 10:18:21;;;;;;;0.20;0.20;;;15.20;53.50;;;;;;4158029;28;20045;-44
2021/04/24 10:20:45;;;;;;;0.20;0.20;;;15.20;53.60;;;;;;4158165;28;20073;-45
2021/04/24 10:23:09;;;;;;;0.00;0.00;;;15.30;53.30;;;;;;4158042;28;20103;-47
2021/04/24 10:25:30;;;;;;;0.20;0.20;;;15.30;53.40;;;;;;4157170;28;20041;-44
2021/04/24 10:27:52;;;;;;;0.20;0.20;;;15.30;53.50;;;;;;4158175;28;20056;-45
2021/04/24 10:30:14;;;;;;;0.00;0.00;;;15.20;53.20;;;;;;4158034;28;20468;-43
2021/04/24 10:32:36;;;;;;;0.00;0.00;;;15.30;53.20;;;;;;4156112;28;20053;-45
2021/04/24 10:34:58;;;;;;;0.20;0.20;;;15.30;53.30;;;;;;4134918;28;20050;-45
2021/04/24 10:37:18;;;;;;;0.00;0.00;;;15.30;53.40;;;;;;4139591;28;20069;-44
2021/04/24 10:39:41;;;;;;;0.85;0.85;;;15.30;53.30;;;;;;4125609;28;20046;-47
2021/04/24 10:42:07;;;;;;;0.10;0.10;;;15.30;53.10;;;;;;4147033;28;20041;-44
2021/04/24 10:44:48;;;;;;;0.95;0.95;;;15.30;53.10;;;;;;4142185;28;20053;-45
2021/04/24 10:47:09;;;;;;;0.43;0.43;;;15.30;52.80;;;;;;4125985;28;20509;-46
2021/04/24 10:49:31;;;;;;;;;;;15.30;52.80;;;;;;4157306;28;20045;-44
2021/04/24 10:52:18;;;;;;;0.00;0.00;;;15.30;52.60;;;;;;4156720;28;20376;-49
2021/04/24 10:54:40;;;;;;;0.22;0.22;;;15.30;52.60;;;;;;4155662;28;20548;-49
2021/04/24 10:57:03;;;;;;;0.43;0.43;;;15.30;52.30;;;;;;4125820;28;20416;-49
2021/04/24 10:59:25;;;;;;;0.00;0.00;;;15.30;52.30;;;;;;4129739;28;20053;-47
2021/04/24 11:02:04;;;;;;;0.00;0.00;;;15.30;52.10;;;;;;4153794;28;20568;-51
2021/04/24 11:04:45;;;;;;;0.28;0.28;;;15.30;51.90;;;;;;4141203;28;20050;-45
2021/04/24 11:07:24;;;;;;;0.00;0.00;;;15.30;51.70;;;;;;4155428;28;20136;-44
2021/04/24 11:09:45;;;;;;;0.10;0.10;;;15.30;51.50;;;;;;4157745;28;20480;-44
2021/04/24 11:12:09;;;;;;;;;;;15.30;51.40;;;;;;4141805;28;20092;-46
2021/04/24 11:14:31;;;;;;;0.00;0.00;;;15.30;51.40;;;;;;4141741;28;20276;-44
2021/04/24 11:16:54;;;;;;;0.00;0.00;;;15.20;51.30;;;;;;4141580;28;20475;-44
2021/04/24 11:19:41;;;;;;;0.00;0.00;;;15.30;51.40;;;;;;4128923;28;20050;-45
2021/04/24 11:22:31;;;;;;;0.00;0.00;;;15.20;51.30;;;;;;4157464;28;20072;-45
2021/04/24 11:24:51;;;;;;;0.10;0.10;;;15.30;51.30;;;;;;4157247;28;20107;-45
2021/04/24 11:27:12;;;;;;;0.10;0.10;;;15.20;51.20;;;;;;4157298;28;20500;-45
2021/04/24 11:29:36;;;;;;;0.05;0.05;;;15.20;51.20;;;;;;4157221;28;20053;-44
2021/04/24 11:32:02;;;;;;;0.10;0.10;;;15.20;51.20;;;;;;4157201;28;20052;-48
2021/04/24 11:34:29;;;;;;;0.10;0.10;;;15.20;51.30;;;;;;4146847;28;20152;-44
2021/04/24 11:37:27;;;;;;;0.10;0.10;;;15.20;51.30;;;;;;4156959;28;20137;-45
2021/04/24 11:40:28;;;;;;;0.00;0.00;;;15.20;51.40;;;;;;4157470;28;20072;-45
2021/04/24 11:43:06;;;;;;;0.88;0.88;;;15.20;51.50;;;;;;4156574;28;20049;-46
2021/04/24 11:45:46;;;;;;;0.57;0.57;;;15.20;51.50;;;;;;4141888;28;20057;-46
2021/04/24 11:48:07;;;;;;;0.00;0.00;;;15.20;51.40;;;;;;4150976;28;20102;-44
2021/04/24 11:50:37;;;;;;;0.00;0.00;;;15.20;51.30;;;;;;4156955;28;20279;-44
2021/04/24 11:52:59;;;;;;;0.00;0.00;;;15.20;51.30;;;;;;4157125;28;20131;-45
2021/04/24 11:55:20;;;;;;;;;;;15.20;51.30;;;;;;4157849;28;20060;-45
2021/04/24 11:57:41;;;;;;;0.00;0.00;;;15.10;51.30;;;;;;4140984;28;19929;-45
2021/04/24 12:00:03;;;;;;;0.00;0.00;;;15.10;51.10;;;;;;4141172;28;20551;-45
2021/04/24 12:02:27;;;;;;;0.30;0.30;;;15.10;51.10;;;;;;4141164;28;20524;-48
2021/04/24 12:04:50;;;;;;;0.00;0.00;;;15.10;51.00;;;;;;4150941;28;20053;-45
2021/04/24 12:07:12;;;;;;;0.00;0.00;;;15.10;50.90;;;;;;4156961;28;20060;-46
2021/04/24 12:09:54;;;;;;;3.90;2.15;;;15.10;50.80;;;;;;4157231;28;20060;-48
2021/04/24 12:12:17;;;;;;;0.00;0.00;;;15.10;50.80;;;;;;4156288;28;20124;-45
2021/04/24 12:14:38;;;;;;;3.03;0.47;;;15.10;50.80;;;;;;4142170;28;20054;-46
2021/04/24 12:16:59;;;;;;;0.00;0.00;;;15.10;50.00;;;;;;4160192;28;20408;-45
2021/04/24 12:19:33;;;;;;;0.00;0.00;;;15.10;50.00;;;;;;4159816;28;20075;-44
2021/04/24 12:22:13;;;;;;;0.00;0.00;;;15.10;50.10;;;;;;4159861;28;20049;-45
2021/04/24 12:24:57;;;;;;;0.85;0.85;;;15.10;50.50;;;;;;4176258;28;20087;-44
2021/04/24 12:27:33;;;;;;;0.00;0.00;;;15.10;50.50;;;;;;4158550;28;20510;-45
2021/04/24 12:30:19;;;;;;;0.00;0.00;;;15.10;50.40;;;;;;4152642;28;20057;-45